Terminal Aerodrome Forecast
Issued by NWS

Home | Current Version | Previous Version | Text Only | Print | Product List | Glossary On
Versions: 1 2 3 4 5 6 7 8 9 10 11 12 13 14
000
FTUS42 TJSJ 302320
TAFJPS
TAF
TJPS 302320Z 0100/0124 08006KT P6SM VCSH SCT025 SCT060 BKN100
      TEMPO 0100/0102 -SHRA BKN030 BKN060
     FM011300 13015KT P6SM VCSH SCT025 SCT060 SCT090
     FM012300 09007KT P6SM -RA SCT028 BKN060 BKN100
      AMD NOT SKED TIL 010300=

USA.gov is the U.S. government's official web portal to all federal, state and local government web resources and services.